Wednesday, November 14, 2018, 1:48 AM EST
Back to Local

KSFM, Sanford, Sanford Regional Airport

Location: Sanford, ME, United States Lat: 43.4
Local Time: 1:48 AM EST ( 6:48 GMT) Lon: -70.717
Time Zone: US/Eastern Elev: 242 ft

Show me the last for .
Show Decoded

2018-11-14 00:56 METAR KSFM 140556Z AUTO 30012G25KT 10SM OVC041 M01/M08 A2998 RMK AO2 PK WND
                 30035/0457 PRESRR SLP157 6//// T10061083 10044 21006 53051 FZRANO PNO $ =
2018-11-13 23:56 METAR KSFM 140456Z AUTO 29019G32KT 10SM FEW042 01/M07 A2993 RMK AO2 PK WND
                 29036/0357 PRESRR SLP139 T00111067 FZRANO PNO $ =
2018-11-13 22:56 METAR KSFM 140356Z AUTO 29022G31KT 10SM CLR 03/M05 A2987 RMK AO2 PK WND
                 30034/0340 PRESRR SLP121 T00281050 401000000 PNO $ =
2018-11-13 21:56 METAR KSFM 140256Z AUTO 28006G17KT 10SM SCT035 04/M01 A2983 RMK AO2 SLP104 6////
                 T00391006 53021 PNO $ =
2018-11-13 20:56 METAR KSFM 140156Z AUTO 26010G15KT 240V310 10SM OVC120 04/00 A2979 RMK AO2
                 SLP094 T00390000 PNO $ =
2018-11-13 19:56 METAR KSFM 140056Z AUTO 29012G19KT 10SM OVC110 04/01 A2978 RMK AO2 SLP091
                 T00440006 PNO $ =
2018-11-13 18:56 METAR KSFM 132356Z AUTO VRB04KT 10SM OVC110 04/02 A2976 RMK AO2 SLP084 6////
                 T00440017 10050 20039 53025 PNO $ =
2018-11-13 17:56 METAR KSFM 132256Z AUTO 28008KT 10SM BKN100 05/03 A2973 RMK AO2 SLP071 T00500033
                 PNO $ =
2018-11-13 17:45 METAR KSFM 132245Z AUTO VRB06KT 10SM SCT011 OVC100 04/03 A2972 RMK AO2 PNO $ =
2018-11-13 17:23 METAR KSFM 132223Z AUTO 28005KT 10SM BKN011 BKN043 OVC120 04/03 A2973 RMK AO2
                 PNO $ =
2018-11-13 16:56 METAR KSFM 132156Z AUTO 30005KT 10SM SCT036 SCT085 OVC120 04/03 A2970 RMK AO2
                 RAE08 SLP063 T00390033 PNO $ =
2018-11-13 16:33 METAR KSFM 132133Z AUTO 30008KT 10SM SCT030 OVC036 04/03 A2969 RMK AO2 RAE08 PNO
                 $ =
2018-11-13 16:04 METAR KSFM 132104Z AUTO 33007KT 10SM -RA SCT017 OVC026 04/03 A2969 RMK AO2 PNO $
                 =
2018-11-13 15:56 METAR KSFM 132056Z AUTO 34008G14KT 2 1/2SM -RA BR FEW007 BKN017 OVC024 04/03
                 A2969 RMK AO2 RAB50 PRESFR SLP058 6//// T00390033 56043 PNO $ =
2018-11-13 15:44 METAR KSFM 132044Z AUTO 32008G15KT 10SM FEW006 OVC015 04/03 A2971 RMK AO2 PNO $
                 =
2018-11-13 15:34 METAR KSFM 132034Z AUTO 31007G14KT 280V350 10SM SCT006 OVC013 04/03 A2972 RMK
                 AO2 PNO $ =
2018-11-13 15:19 METAR KSFM 132019Z AUTO 32008KT 10SM BKN006 OVC011 04/03 A2971 RMK AO2 CIG
                 005V009 PNO $ =
2018-11-13 14:56 METAR KSFM 131956Z AUTO 34012G18KT 10SM OVC004 04/03 A2970 RMK AO2 RAE51 CIG
                 003V008 SLP062 T00390033 PNO $ =
2018-11-13 13:56 METAR KSFM 131856Z AUTO 35007KT 3SM -RA BR BKN004 OVC027 04/03 A2975 RMK AO2
                 SLP079 T00390033 PNO $ =
2018-11-13 13:10 METAR KSFM 131810Z AUTO 34006KT 2 1/2SM -RA BR BKN004 OVC007 04/04 A2980 RMK AO2
                 PRESFR PNO $ =
2018-11-13 12:56 METAR KSFM 131756Z AUTO 36009KT 2 1/2SM -RA BR SCT004 OVC007 04/04 A2982 RMK AO2
                 PRESFR SLP102 6//// T00390039 10100 20039 56050 PNO $ =
2018-11-13 12:21 METAR KSFM 131721Z AUTO 36008KT 2 1/2SM -RA BR BKN004 OVC008 05/05 A2984 RMK AO2
                 PNO $ =
2018-11-13 12:10 METAR KSFM 131710Z AUTO 34005KT 7SM RA SCT004 OVC008 06/05 A2986 RMK AO2 CIG
                 006V012 PNO $ =
2018-11-13 11:56 METAR KSFM 131656Z AUTO 34010KT 8SM +RA OVC004 06/06 A2986 RMK AO2 CIG 002V008
                 SLP117 T00610056 PNO $ =
2018-11-13 10:56 METAR KSFM 131556Z AUTO VRB05KT 6SM RA BR OVC006 10/09 A2991 RMK AO2 SLP134
                 T01000094 PNO $ =
2018-11-13 10:12 METAR KSFM 131512Z AUTO 00000KT 5SM RA BR OVC006 09/08 A2995 RMK AO2 CIG 003V009
                 PNO $ =
2018-11-13 09:56 METAR KSFM 131456Z AUTO VRB03KT 5SM RA BR OVC004 08/08 A2996 RMK AO2 CIG 003V007
                 SLP151 6//// T00830078 58058 PNO $ =
2018-11-13 08:56 METAR KSFM 131356Z AUTO VRB06KT 3SM RA BR OVC004 07/07 A3003 RMK AO2 SLP176
                 T00720072 PNO $ =
2018-11-13 07:56 METAR KSFM 131256Z AUTO 12007KT 5SM RA BR OVC004 07/06 A3010 RMK AO2 SLP199
                 T00670061 PNO $ =
2018-11-13 07:26 METAR KSFM 131226Z AUTO 00000KT 5SM RA BR OVC004 06/06 A3013 RMK AO2 CIG 003V007
                 PNO $ =
2018-11-13 06:56 METAR KSFM 131156Z AUTO 05003KT 2 1/2SM -RA BR OVC004 04/03 A3014 RMK AO2 CIG
                 002V008 SLP210 6//// 7//// T00390033 10039 20006 55035 PNO $ =
2018-11-13 06:52 METAR KSFM 131152Z AUTO 05004KT 2SM -RA BR OVC004 03/03 A3013 RMK AO2 CIG
                 002V008 PNO $ =
2018-11-13 06:27 METAR KSFM 131127Z AUTO 07007KT 4SM RA BR OVC004 03/03 A3015 RMK AO2 CIG 002V007
                 PRESFR PNO $ =
2018-11-13 05:56 METAR KSFM 131056Z AUTO 05006KT 4SM RA BR OVC002 02/02 A3019 RMK AO2 SLP229
                 T00220022 FZRANO PNO $ =
2018-11-13 05:30 METAR KSFM 131030Z AUTO 02004KT 4SM -RA BR BKN002 BKN018 OVC025 02/02 A3021 RMK
                 AO2 PRESFR FZRANO PNO $ =
2018-11-13 05:25 METAR KSFM 131025Z AUTO 02004KT 4SM -RA BR SCT002 BKN018 OVC025 02/02 A3021 RMK
                 AO2 FZRANO PNO $ =
2018-11-13 05:23 METAR KSFM 131023Z AUTO 03004KT 4SM -RA BR SCT002 BKN007 OVC019 02/02 A3021 RMK
                 AO2 CIG 005V011 FZRANO PNO $ =
2018-11-13 04:56 METAR KSFM 130956Z AUTO 00000KT 4SM -RA BR SCT009 BKN015 OVC022 02/02 A3024 RMK
                 AO2 SLP245 T00220017 FZRANO PNO $ =
2018-11-13 03:56 METAR KSFM 130856Z AUTO 04005KT 5SM RA BR BKN025 OVC030 02/01 A3026 RMK AO2
                 SLP250 6//// T00170011 56030 FZRANO PNO $ =
2018-11-13 02:56 METAR KSFM 130756Z AUTO 00000KT 5SM -RA BR OVC025 02/01 A3028 RMK AO2 SLP258
                 T00170006 FZRANO PNO $ =
2018-11-13 02:04 METAR KSFM 130704Z AUTO 00000KT 10SM -RA BKN027 BKN042 OVC050 01/00 A3031 RMK
                 AO2 FZRANO PNO $ =
2018-11-13 01:56 METAR KSFM 130656Z AUTO 00000KT 10SM -RA SCT027 BKN036 OVC047 01/00 A3032 RMK
                 AO2 RAB0559UPB38E54 SLP272 T00110000 FZRANO PNO $ =

Support USWX by starting your Amazon purchase here.